sensor_id;sensor_type;location;lat;lon;timestamp;P1;durP1;ratioP1;P2;durP2;ratioP2
64907;SDS011;64365;-1.756;110.040;2023-03-20T00:00:57;20.65;;;10.05;;
64907;SDS011;64365;-1.756;110.040;2023-03-20T00:03:24;16.80;;;9.63;;
64907;SDS011;64365;-1.756;110.040;2023-03-20T00:05:51;29.33;;;10.55;;
64907;SDS011;64365;-1.756;110.040;2023-03-20T00:08:18;22.00;;;10.68;;
64907;SDS011;64365;-1.756;110.040;2023-03-20T00:10:44;19.30;;;11.48;;
64907;SDS011;64365;-1.756;110.040;2023-03-20T00:13:12;23.55;;;11.15;;
64907;SDS011;64365;-1.756;110.040;2023-03-20T00:15:42;19.48;;;10.75;;
64907;SDS011;64365;-1.756;110.040;2023-03-20T00:18:13;25.48;;;11.00;;
64907;SDS011;64365;-1.756;110.040;2023-03-20T00:20:42;22.83;;;12.73;;
64907;SDS011;64365;-1.756;110.040;2023-03-20T00:23:09;21.65;;;12.32;;
64907;SDS011;64365;-1.756;110.040;2023-03-20T00:25:36;23.23;;;12.30;;
64907;SDS011;64365;-1.756;110.040;2023-03-20T00:28:09;19.25;;;10.80;;
64907;SDS011;64365;-1.756;110.040;2023-03-20T00:30:55;23.98;;;10.43;;
64907;SDS011;64365;-1.756;110.040;2023-03-20T00:33:22;21.48;;;10.20;;
64907;SDS011;64365;-1.756;110.040;2023-03-20T00:35:48;18.25;;;9.77;;
64907;SDS011;64365;-1.756;110.040;2023-03-20T00:38:15;19.30;;;9.40;;
64907;SDS011;64365;-1.756;110.040;2023-03-20T00:40:42;17.50;;;10.60;;
64907;SDS011;64365;-1.756;110.040;2023-03-20T00:43:10;19.17;;;9.48;;
64907;SDS011;64365;-1.756;110.040;2023-03-20T00:45:40;19.65;;;9.90;;
64907;SDS011;64365;-1.756;110.040;2023-03-20T00:48:11;20.05;;;10.73;;
64907;SDS011;64365;-1.756;110.040;2023-03-20T00:50:40;19.48;;;8.82;;
64907;SDS011;64365;-1.756;110.040;2023-03-20T00:53:08;18.98;;;9.45;;
64907;SDS011;64365;-1.756;110.040;2023-03-20T00:55:35;16.42;;;9.57;;
64907;SDS011;64365;-1.756;110.040;2023-03-20T00:58:04;17.83;;;8.88;;
64907;SDS011;64365;-1.756;110.040;2023-03-20T01:00:35;16.20;;;8.75;;
64907;SDS011;64365;-1.756;110.040;2023-03-20T01:03:09;14.23;;;8.13;;
64907;SDS011;64365;-1.756;110.040;2023-03-20T01:05:39;15.55;;;7.90;;
64907;SDS011;64365;-1.756;110.040;2023-03-20T01:08:13;12.82;;;8.15;;
64907;SDS011;64365;-1.756;110.040;2023-03-20T01:10:41;12.27;;;6.80;;
64907;SDS011;64365;-1.756;110.040;2023-03-20T01:13:17;10.25;;;7.13;;
64907;SDS011;64365;-1.756;110.040;2023-03-20T01:15:46;13.98;;;7.55;;
64907;SDS011;64365;-1.756;110.040;2023-03-20T01:18:15;12.20;;;7.05;;
64907;SDS011;64365;-1.756;110.040;2023-03-20T01:20:42;11.90;;;7.55;;
64907;SDS011;64365;-1.756;110.040;2023-03-20T01:23:09;10.45;;;7.20;;
64907;SDS011;64365;-1.756;110.040;2023-03-20T01:25:36;12.57;;;6.97;;
64907;SDS011;64365;-1.756;110.040;2023-03-20T01:28:06;13.07;;;7.05;;
64907;SDS011;64365;-1.756;110.040;2023-03-20T01:30:42;13.93;;;8.63;;
64907;SDS011;64365;-1.756;110.040;2023-03-20T01:33:11;16.70;;;8.27;;
64907;SDS011;64365;-1.756;110.040;2023-03-20T01:35:41;14.98;;;8.52;;
64907;SDS011;64365;-1.756;110.040;2023-03-20T01:38:10;16.08;;;8.65;;
64907;SDS011;64365;-1.756;110.040;2023-03-20T01:40:41;15.27;;;8.18;;
64907;SDS011;64365;-1.756;110.040;2023-03-20T01:43:14;18.05;;;9.23;;
64907;SDS011;64365;-1.756;110.040;2023-03-20T01:45:46;17.73;;;9.32;;
64907;SDS011;64365;-1.756;110.040;2023-03-20T01:48:19;18.40;;;9.63;;
64907;SDS011;64365;-1.756;110.040;2023-03-20T01:50:51;20.20;;;9.00;;
64907;SDS011;64365;-1.756;110.040;2023-03-20T01:53:19;14.20;;;8.18;;
64907;SDS011;64365;-1.756;110.040;2023-03-20T01:55:48;16.92;;;7.63;;
64907;SDS011;64365;-1.756;110.040;2023-03-20T01:58:20;14.07;;;8.32;;
64907;SDS011;64365;-1.756;110.040;2023-03-20T02:00:52;15.15;;;8.65;;
64907;SDS011;64365;-1.756;110.040;2023-03-20T02:03:18;20.60;;;9.18;;
64907;SDS011;64365;-1.756;110.040;2023-03-20T02:05:46;13.35;;;8.65;;
64907;SDS011;64365;-1.756;110.040;2023-03-20T02:08:20;17.77;;;8.65;;
64907;SDS011;64365;-1.756;110.040;2023-03-20T02:10:50;20.77;;;8.18;;
64907;SDS011;64365;-1.756;110.040;2023-03-20T02:13:18;17.33;;;8.73;;
64907;SDS011;64365;-1.756;110.040;2023-03-20T02:15:54;17.15;;;8.50;;
64907;SDS011;64365;-1.756;110.040;2023-03-20T02:18:22;17.17;;;8.45;;
64907;SDS011;64365;-1.756;110.040;2023-03-20T02:20:54;19.83;;;9.50;;
64907;SDS011;64365;-1.756;110.040;2023-03-20T02:26:49;17.48;;;9.13;;
64907;SDS011;64365;-1.756;110.040;2023-03-20T02:29:39;18.00;;;9.48;;
64907;SDS011;64365;-1.756;110.040;2023-03-20T02:32:30;13.88;;;8.50;;
64907;SDS011;64365;-1.756;110.040;2023-03-20T02:35:18;22.58;;;9.30;;
64907;SDS011;64365;-1.756;110.040;2023-03-20T02:38:02;21.05;;;9.70;;
64907;SDS011;64365;-1.756;110.040;2023-03-20T02:40:37;23.02;;;10.00;;
64907;SDS011;64365;-1.756;110.040;2023-03-20T02:43:11;24.95;;;9.70;;
64907;SDS011;64365;-1.756;110.040;2023-03-20T02:45:47;19.73;;;9.10;;
64907;SDS011;64365;-1.756;110.040;2023-03-20T02:48:20;17.60;;;9.30;;
64907;SDS011;64365;-1.756;110.040;2023-03-20T02:51:00;17.70;;;10.35;;
64907;SDS011;64365;-1.756;110.040;2023-03-20T02:53:34;22.17;;;10.10;;
64907;SDS011;64365;-1.756;110.040;2023-03-20T02:56:10;22.08;;;10.48;;
64907;SDS011;64365;-1.756;110.040;2023-03-20T02:58:44;23.73;;;10.63;;
64907;SDS011;64365;-1.756;110.040;2023-03-20T03:01:16;25.83;;;10.65;;
64907;SDS011;64365;-1.756;110.040;2023-03-20T03:03:48;21.98;;;10.45;;
64907;SDS011;64365;-1.756;110.040;2023-03-20T03:06:19;24.58;;;9.98;;
64907;SDS011;64365;-1.756;110.040;2023-03-20T03:08:53;22.30;;;10.48;;
64907;SDS011;64365;-1.756;110.040;2023-03-20T03:11:24;30.73;;;13.23;;
64907;SDS011;64365;-1.756;110.040;2023-03-20T03:13:52;20.58;;;10.07;;
64907;SDS011;64365;-1.756;110.040;2023-03-20T03:16:21;18.98;;;9.77;;
64907;SDS011;64365;-1.756;110.040;2023-03-20T03:18:53;20.73;;;11.40;;
64907;SDS011;64365;-1.756;110.040;2023-03-20T03:21:26;27.60;;;11.85;;
64907;SDS011;64365;-1.756;110.040;2023-03-20T03:23:56;27.60;;;11.90;;
64907;SDS011;64365;-1.756;110.040;2023-03-20T03:26:25;26.63;;;11.43;;
64907;SDS011;64365;-1.756;110.040;2023-03-20T03:28:56;20.50;;;12.63;;
64907;SDS011;64365;-1.756;110.040;2023-03-20T03:31:26;29.27;;;12.85;;
64907;SDS011;64365;-1.756;110.040;2023-03-20T03:33:55;27.85;;;13.15;;
64907;SDS011;64365;-1.756;110.040;2023-03-20T03:36:26;24.92;;;13.02;;
64907;SDS011;64365;-1.756;110.040;2023-03-20T03:39:03;24.35;;;12.93;;
64907;SDS011;64365;-1.756;110.040;2023-03-20T03:41:38;29.80;;;13.57;;
64907;SDS011;64365;-1.756;110.040;2023-03-20T03:44:10;27.92;;;13.88;;
64907;SDS011;64365;-1.756;110.040;2023-03-20T03:46:41;29.88;;;14.45;;
64907;SDS011;64365;-1.756;110.040;2023-03-20T03:49:12;29.52;;;14.88;;
64907;SDS011;64365;-1.756;110.040;2023-03-20T03:51:44;33.13;;;15.13;;
64907;SDS011;64365;-1.756;110.040;2023-03-20T03:54:16;28.88;;;15.40;;
64907;SDS011;64365;-1.756;110.040;2023-03-20T03:56:46;32.15;;;16.85;;
64907;SDS011;64365;-1.756;110.040;2023-03-20T03:59:16;28.00;;;14.20;;
64907;SDS011;64365;-1.756;110.040;2023-03-20T04:04:16;30.77;;;15.10;;
64907;SDS011;64365;-1.756;110.040;2023-03-20T04:06:45;35.15;;;16.77;;
64907;SDS011;64365;-1.756;110.040;2023-03-20T04:09:12;27.92;;;15.43;;
64907;SDS011;64365;-1.756;110.040;2023-03-20T04:11:40;30.08;;;16.15;;
64907;SDS011;64365;-1.756;110.040;2023-03-20T04:14:07;27.70;;;15.88;;
64907;SDS011;64365;-1.756;110.040;2023-03-20T04:16:33;28.90;;;15.60;;
64907;SDS011;64365;-1.756;110.040;2023-03-20T04:19:00;33.90;;;16.98;;
64907;SDS011;64365;-1.756;110.040;2023-03-20T04:21:27;31.15;;;16.33;;
64907;SDS011;64365;-1.756;110.040;2023-03-20T04:23:53;28.20;;;15.88;;
64907;SDS011;64365;-1.756;110.040;2023-03-20T04:26:20;24.25;;;14.63;;
64907;SDS011;64365;-1.756;110.040;2023-03-20T04:28:48;31.27;;;15.18;;
64907;SDS011;64365;-1.756;110.040;2023-03-20T04:31:15;29.08;;;15.43;;
64907;SDS011;64365;-1.756;110.040;2023-03-20T04:33:42;34.33;;;15.85;;
64907;SDS011;64365;-1.756;110.040;2023-03-20T04:36:08;34.95;;;15.63;;
64907;SDS011;64365;-1.756;110.040;2023-03-20T04:38:35;32.42;;;14.75;;
64907;SDS011;64365;-1.756;110.040;2023-03-20T04:41:02;29.90;;;15.98;;
64907;SDS011;64365;-1.756;110.040;2023-03-20T04:43:29;27.52;;;15.65;;
64907;SDS011;64365;-1.756;110.040;2023-03-20T04:45:57;28.67;;;15.00;;
64907;SDS011;64365;-1.756;110.040;2023-03-20T04:48:24;29.77;;;15.40;;
64907;SDS011;64365;-1.756;110.040;2023-03-20T04:50:51;23.30;;;15.18;;
64907;SDS011;64365;-1.756;110.040;2023-03-20T04:53:18;33.53;;;16.27;;
64907;SDS011;64365;-1.756;110.040;2023-03-20T04:55:45;27.27;;;14.27;;
64907;SDS011;64365;-1.756;110.040;2023-03-20T04:58:12;28.35;;;16.67;;
64907;SDS011;64365;-1.756;110.040;2023-03-20T05:00:38;30.95;;;16.00;;
64907;SDS011;64365;-1.756;110.040;2023-03-20T05:03:06;30.02;;;15.60;;
64907;SDS011;64365;-1.756;110.040;2023-03-20T05:05:33;27.15;;;14.63;;
64907;SDS011;64365;-1.756;110.040;2023-03-20T05:08:02;30.67;;;14.48;;
64907;SDS011;64365;-1.756;110.040;2023-03-20T05:10:29;27.10;;;15.18;;
64907;SDS011;64365;-1.756;110.040;2023-03-20T05:12:55;29.83;;;16.55;;
64907;SDS011;64365;-1.756;110.040;2023-03-20T05:15:22;28.10;;;16.15;;
64907;SDS011;64365;-1.756;110.040;2023-03-20T05:17:49;30.27;;;16.13;;
64907;SDS011;64365;-1.756;110.040;2023-03-20T05:20:17;31.55;;;15.73;;
64907;SDS011;64365;-1.756;110.040;2023-03-20T05:22:43;34.08;;;15.95;;
64907;SDS011;64365;-1.756;110.040;2023-03-20T05:25:13;28.35;;;14.23;;
64907;SDS011;64365;-1.756;110.040;2023-03-20T05:27:40;25.65;;;13.88;;
64907;SDS011;64365;-1.756;110.040;2023-03-20T05:30:06;32.47;;;15.65;;
64907;SDS011;64365;-1.756;110.040;2023-03-20T05:32:34;30.13;;;15.63;;
64907;SDS011;64365;-1.756;110.040;2023-03-20T05:35:00;26.27;;;15.65;;
64907;SDS011;64365;-1.756;110.040;2023-03-20T05:37:30;31.48;;;16.80;;
64907;SDS011;64365;-1.756;110.040;2023-03-20T05:39:56;27.73;;;15.75;;
64907;SDS011;64365;-1.756;110.040;2023-03-20T05:42:23;23.63;;;14.68;;
64907;SDS011;64365;-1.756;110.040;2023-03-20T05:44:49;25.70;;;15.10;;
64907;SDS011;64365;-1.756;110.040;2023-03-20T05:47:16;33.72;;;17.50;;
64907;SDS011;64365;-1.756;110.040;2023-03-20T05:49:43;30.30;;;15.40;;
64907;SDS011;64365;-1.756;110.040;2023-03-20T05:52:09;30.25;;;17.30;;
64907;SDS011;64365;-1.756;110.040;2023-03-20T05:54:37;28.98;;;16.90;;
64907;SDS011;64365;-1.756;110.040;2023-03-20T05:57:04;31.00;;;16.25;;
64907;SDS011;64365;-1.756;110.040;2023-03-20T05:59:30;31.45;;;15.02;;
64907;SDS011;64365;-1.756;110.040;2023-03-20T06:01:57;31.45;;;15.95;;
64907;SDS011;64365;-1.756;110.040;2023-03-20T06:04:24;25.35;;;16.80;;
64907;SDS011;64365;-1.756;110.040;2023-03-20T06:06:51;32.00;;;15.98;;
64907;SDS011;64365;-1.756;110.040;2023-03-20T06:09:17;27.48;;;16.10;;
64907;SDS011;64365;-1.756;110.040;2023-03-20T06:11:45;29.00;;;16.67;;
64907;SDS011;64365;-1.756;110.040;2023-03-20T06:14:12;32.25;;;16.83;;
64907;SDS011;64365;-1.756;110.040;2023-03-20T06:16:38;28.15;;;17.23;;
64907;SDS011;64365;-1.756;110.040;2023-03-20T06:19:05;29.83;;;16.33;;
64907;SDS011;64365;-1.756;110.040;2023-03-20T06:21:32;28.60;;;16.60;;
64907;SDS011;64365;-1.756;110.040;2023-03-20T06:23:58;30.35;;;17.08;;
64907;SDS011;64365;-1.756;110.040;2023-03-20T06:26:25;27.92;;;16.92;;
64907;SDS011;64365;-1.756;110.040;2023-03-20T06:28:54;25.88;;;16.42;;
64907;SDS011;64365;-1.756;110.040;2023-03-20T06:31:21;27.55;;;17.80;;
64907;SDS011;64365;-1.756;110.040;2023-03-20T06:33:47;33.75;;;18.02;;
64907;SDS011;64365;-1.756;110.040;2023-03-20T06:36:14;30.40;;;16.77;;
64907;SDS011;64365;-1.756;110.040;2023-03-20T06:38:41;28.05;;;18.10;;
64907;SDS011;64365;-1.756;110.040;2023-03-20T06:41:08;28.27;;;18.58;;
64907;SDS011;64365;-1.756;110.040;2023-03-20T06:43:35;28.45;;;16.20;;
64907;SDS011;64365;-1.756;110.040;2023-03-20T06:46:05;30.27;;;17.95;;
64907;SDS011;64365;-1.756;110.040;2023-03-20T06:48:32;33.45;;;17.50;;
64907;SDS011;64365;-1.756;110.040;2023-03-20T06:50:58;31.92;;;17.00;;
64907;SDS011;64365;-1.756;110.040;2023-03-20T06:53:25;33.45;;;18.00;;
64907;SDS011;64365;-1.756;110.040;2023-03-20T06:55:52;29.13;;;16.13;;
64907;SDS011;64365;-1.756;110.040;2023-03-20T06:58:19;31.88;;;16.77;;
64907;SDS011;64365;-1.756;110.040;2023-03-20T07:00:46;28.27;;;15.98;;
64907;SDS011;64365;-1.756;110.040;2023-03-20T07:03:13;27.67;;;16.52;;
64907;SDS011;64365;-1.756;110.040;2023-03-20T07:05:40;28.15;;;16.35;;
64907;SDS011;64365;-1.756;110.040;2023-03-20T07:08:07;27.17;;;15.15;;
64907;SDS011;64365;-1.756;110.040;2023-03-20T07:10:34;29.13;;;15.52;;
64907;SDS011;64365;-1.756;110.040;2023-03-20T07:13:02;30.45;;;16.00;;
64907;SDS011;64365;-1.756;110.040;2023-03-20T07:15:29;25.20;;;15.25;;
64907;SDS011;64365;-1.756;110.040;2023-03-20T07:17:56;26.95;;;14.15;;
64907;SDS011;64365;-1.756;110.040;2023-03-20T07:20:24;27.02;;;16.27;;
64907;SDS011;64365;-1.756;110.040;2023-03-20T07:22:51;25.83;;;15.23;;
64907;SDS011;64365;-1.756;110.040;2023-03-20T07:25:17;32.17;;;16.15;;
64907;SDS011;64365;-1.756;110.040;2023-03-20T07:27:44;29.45;;;15.45;;
64907;SDS011;64365;-1.756;110.040;2023-03-20T07:30:14;31.30;;;15.68;;
64907;SDS011;64365;-1.756;110.040;2023-03-20T07:32:41;35.13;;;15.30;;
64907;SDS011;64365;-1.756;110.040;2023-03-20T07:35:08;25.30;;;14.38;;
64907;SDS011;64365;-1.756;110.040;2023-03-20T07:37:36;22.50;;;13.38;;
64907;SDS011;64365;-1.756;110.040;2023-03-20T07:40:03;26.80;;;14.13;;
64907;SDS011;64365;-1.756;110.040;2023-03-20T07:42:30;23.13;;;13.20;;
64907;SDS011;64365;-1.756;110.040;2023-03-20T07:44:57;29.30;;;13.73;;
64907;SDS011;64365;-1.756;110.040;2023-03-20T07:47:24;22.35;;;13.00;;
64907;SDS011;64365;-1.756;110.040;2023-03-20T07:49:50;37.22;;;15.77;;
64907;SDS011;64365;-1.756;110.040;2023-03-20T07:52:17;28.38;;;13.93;;
64907;SDS011;64365;-1.756;110.040;2023-03-20T07:54:45;23.75;;;13.25;;
64907;SDS011;64365;-1.756;110.040;2023-03-20T07:57:12;25.55;;;13.23;;
64907;SDS011;64365;-1.756;110.040;2023-03-20T07:59:38;28.77;;;13.85;;
64907;SDS011;64365;-1.756;110.040;2023-03-20T08:02:05;24.77;;;14.35;;
64907;SDS011;64365;-1.756;110.040;2023-03-20T08:04:31;26.73;;;13.75;;
64907;SDS011;64365;-1.756;110.040;2023-03-20T08:06:58;24.15;;;12.40;;
64907;SDS011;64365;-1.756;110.040;2023-03-20T08:09:25;22.63;;;12.35;;
64907;SDS011;64365;-1.756;110.040;2023-03-20T08:11:53;22.05;;;12.20;;
64907;SDS011;64365;-1.756;110.040;2023-03-20T08:14:19;22.75;;;11.32;;
64907;SDS011;64365;-1.756;110.040;2023-03-20T08:16:46;23.25;;;11.43;;
64907;SDS011;64365;-1.756;110.040;2023-03-20T08:19:13;21.23;;;11.82;;
64907;SDS011;64365;-1.756;110.040;2023-03-20T08:21:40;26.25;;;12.07;;
64907;SDS011;64365;-1.756;110.040;2023-03-20T08:24:06;25.05;;;11.18;;
64907;SDS011;64365;-1.756;110.040;2023-03-20T08:26:34;19.27;;;10.35;;
64907;SDS011;64365;-1.756;110.040;2023-03-20T08:29:02;27.55;;;10.85;;
64907;SDS011;64365;-1.756;110.040;2023-03-20T08:31:29;20.65;;;10.35;;
64907;SDS011;64365;-1.756;110.040;2023-03-20T08:33:56;25.88;;;11.43;;
64907;SDS011;64365;-1.756;110.040;2023-03-20T08:36:23;18.83;;;10.52;;
64907;SDS011;64365;-1.756;110.040;2023-03-20T08:38:49;21.95;;;10.23;;
64907;SDS011;64365;-1.756;110.040;2023-03-20T08:41:16;17.15;;;10.07;;
64907;SDS011;64365;-1.756;110.040;2023-03-20T08:43:43;22.13;;;10.77;;
64907;SDS011;64365;-1.756;110.040;2023-03-20T08:46:13;20.73;;;9.77;;
64907;SDS011;64365;-1.756;110.040;2023-03-20T08:48:39;24.80;;;12.23;;
64907;SDS011;64365;-1.756;110.040;2023-03-20T08:51:06;22.92;;;11.75;;
64907;SDS011;64365;-1.756;110.040;2023-03-20T08:53:33;25.05;;;11.93;;
64907;SDS011;64365;-1.756;110.040;2023-03-20T08:56:01;20.63;;;11.13;;
64907;SDS011;64365;-1.756;110.040;2023-03-20T08:58:27;19.00;;;10.93;;
64907;SDS011;64365;-1.756;110.040;2023-03-20T09:00:54;27.63;;;11.18;;
64907;SDS011;64365;-1.756;110.040;2023-03-20T09:03:22;22.80;;;10.98;;
64907;SDS011;64365;-1.756;110.040;2023-03-20T09:05:50;19.77;;;10.52;;
64907;SDS011;64365;-1.756;110.040;2023-03-20T09:08:17;24.63;;;11.05;;
64907;SDS011;64365;-1.756;110.040;2023-03-20T09:10:45;26.23;;;12.02;;
64907;SDS011;64365;-1.756;110.040;2023-03-20T09:13:13;28.55;;;11.20;;
64907;SDS011;64365;-1.756;110.040;2023-03-20T09:15:39;31.63;;;11.30;;
64907;SDS011;64365;-1.756;110.040;2023-03-20T09:18:06;22.45;;;11.30;;
64907;SDS011;64365;-1.756;110.040;2023-03-20T09:20:34;18.92;;;11.07;;
64907;SDS011;64365;-1.756;110.040;2023-03-20T09:23:00;17.02;;;9.18;;
64907;SDS011;64365;-1.756;110.040;2023-03-20T09:25:27;21.83;;;11.13;;
64907;SDS011;64365;-1.756;110.040;2023-03-20T09:27:53;27.70;;;12.40;;
64907;SDS011;64365;-1.756;110.040;2023-03-20T09:30:20;18.75;;;10.75;;
64907;SDS011;64365;-1.756;110.040;2023-03-20T09:32:47;17.95;;;10.35;;
64907;SDS011;64365;-1.756;110.040;2023-03-20T09:35:14;21.30;;;9.60;;
64907;SDS011;64365;-1.756;110.040;2023-03-20T09:37:42;20.45;;;9.85;;
64907;SDS011;64365;-1.756;110.040;2023-03-20T09:40:11;22.27;;;11.25;;
64907;SDS011;64365;-1.756;110.040;2023-03-20T09:42:48;19.83;;;10.00;;
64907;SDS011;64365;-1.756;110.040;2023-03-20T09:45:23;21.38;;;10.65;;
64907;SDS011;64365;-1.756;110.040;2023-03-20T09:48:00;21.88;;;11.60;;
64907;SDS011;64365;-1.756;110.040;2023-03-20T09:50:32;20.60;;;9.93;;
64907;SDS011;64365;-1.756;110.040;2023-03-20T09:53:05;25.27;;;9.90;;
64907;SDS011;64365;-1.756;110.040;2023-03-20T09:55:37;27.05;;;9.85;;
64907;SDS011;64365;-1.756;110.040;2023-03-20T09:58:09;17.90;;;10.52;;
64907;SDS011;64365;-1.756;110.040;2023-03-20T10:00:38;27.13;;;9.82;;
64907;SDS011;64365;-1.756;110.040;2023-03-20T10:03:12;27.98;;;10.30;;
64907;SDS011;64365;-1.756;110.040;2023-03-20T10:05:44;19.58;;;9.80;;
64907;SDS011;64365;-1.756;110.040;2023-03-20T10:08:16;21.85;;;10.20;;
64907;SDS011;64365;-1.756;110.040;2023-03-20T10:10:48;23.20;;;10.20;;
64907;SDS011;64365;-1.756;110.040;2023-03-20T10:13:26;20.38;;;11.23;;
64907;SDS011;64365;-1.756;110.040;2023-03-20T10:16:14;15.55;;;9.60;;
64907;SDS011;64365;-1.756;110.040;2023-03-20T10:18:48;22.50;;;10.57;;
64907;SDS011;64365;-1.756;110.040;2023-03-20T10:21:22;22.40;;;10.27;;
64907;SDS011;64365;-1.756;110.040;2023-03-20T10:23:59;23.75;;;11.07;;
64907;SDS011;64365;-1.756;110.040;2023-03-20T10:26:30;24.33;;;9.40;;
64907;SDS011;64365;-1.756;110.040;2023-03-20T10:29:00;15.95;;;8.68;;
64907;SDS011;64365;-1.756;110.040;2023-03-20T10:31:32;23.02;;;9.35;;
64907;SDS011;64365;-1.756;110.040;2023-03-20T10:34:13;23.45;;;10.23;;
64907;SDS011;64365;-1.756;110.040;2023-03-20T10:36:53;18.15;;;10.80;;
64907;SDS011;64365;-1.756;110.040;2023-03-20T10:39:34;26.52;;;11.10;;
64907;SDS011;64365;-1.756;110.040;2023-03-20T10:42:12;26.75;;;11.07;;
64907;SDS011;64365;-1.756;110.040;2023-03-20T10:44:45;21.80;;;11.00;;
64907;SDS011;64365;-1.756;110.040;2023-03-20T10:47:16;18.38;;;10.45;;
64907;SDS011;64365;-1.756;110.040;2023-03-20T10:49:47;23.38;;;12.10;;
64907;SDS011;64365;-1.756;110.040;2023-03-20T10:52:19;23.17;;;13.57;;
64907;SDS011;64365;-1.756;110.040;2023-03-20T10:54:53;21.65;;;12.00;;
64907;SDS011;64365;-1.756;110.040;2023-03-20T10:57:22;25.90;;;13.15;;
64907;SDS011;64365;-1.756;110.040;2023-03-20T10:59:51;30.50;;;13.93;;
64907;SDS011;64365;-1.756;110.040;2023-03-20T11:02:20;27.50;;;12.35;;
64907;SDS011;64365;-1.756;110.040;2023-03-20T11:04:48;23.48;;;14.07;;
64907;SDS011;64365;-1.756;110.040;2023-03-20T11:07:18;29.13;;;14.48;;
64907;SDS011;64365;-1.756;110.040;2023-03-20T11:12:44;24.67;;;14.98;;
64907;SDS011;64365;-1.756;110.040;2023-03-20T11:15:19;28.95;;;14.63;;
64907;SDS011;64365;-1.756;110.040;2023-03-20T11:17:52;28.58;;;15.52;;
64907;SDS011;64365;-1.756;110.040;2023-03-20T11:20:19;27.48;;;15.15;;
64907;SDS011;64365;-1.756;110.040;2023-03-20T11:22:46;28.50;;;16.38;;
64907;SDS011;64365;-1.756;110.040;2023-03-20T11:25:24;33.47;;;15.40;;
64907;SDS011;64365;-1.756;110.040;2023-03-20T11:27:57;31.67;;;17.05;;
64907;SDS011;64365;-1.756;110.040;2023-03-20T11:30:45;30.88;;;17.25;;
64907;SDS011;64365;-1.756;110.040;2023-03-20T11:33:13;33.88;;;16.80;;
64907;SDS011;64365;-1.756;110.040;2023-03-20T11:35:43;34.40;;;18.02;;
64907;SDS011;64365;-1.756;110.040;2023-03-20T11:38:13;27.63;;;17.05;;
64907;SDS011;64365;-1.756;110.040;2023-03-20T11:40:41;31.88;;;18.15;;
64907;SDS011;64365;-1.756;110.040;2023-03-20T11:43:11;36.97;;;19.48;;
64907;SDS011;64365;-1.756;110.040;2023-03-20T11:45:39;38.33;;;19.15;;
64907;SDS011;64365;-1.756;110.040;2023-03-20T11:48:16;25.80;;;17.30;;
64907;SDS011;64365;-1.756;110.040;2023-03-20T11:50:46;44.17;;;19.42;;
64907;SDS011;64365;-1.756;110.040;2023-03-20T11:53:22;43.53;;;21.15;;
64907;SDS011;64365;-1.756;110.040;2023-03-20T11:56:04;32.50;;;18.95;;
64907;SDS011;64365;-1.756;110.040;2023-03-20T11:58:36;33.53;;;17.92;;
64907;SDS011;64365;-1.756;110.040;2023-03-20T12:01:12;33.08;;;18.80;;
64907;SDS011;64365;-1.756;110.040;2023-03-20T12:03:40;29.13;;;18.23;;
64907;SDS011;64365;-1.756;110.040;2023-03-20T12:06:12;29.52;;;18.45;;
64907;SDS011;64365;-1.756;110.040;2023-03-20T12:08:42;28.80;;;17.98;;
64907;SDS011;64365;-1.756;110.040;2023-03-20T12:11:19;35.65;;;17.92;;
64907;SDS011;64365;-1.756;110.040;2023-03-20T12:14:02;34.17;;;18.95;;
64907;SDS011;64365;-1.756;110.040;2023-03-20T12:16:32;32.65;;;17.33;;
64907;SDS011;64365;-1.756;110.040;2023-03-20T12:19:01;37.42;;;17.70;;
64907;SDS011;64365;-1.756;110.040;2023-03-20T12:21:38;33.28;;;19.65;;
64907;SDS011;64365;-1.756;110.040;2023-03-20T12:24:10;27.45;;;17.75;;
64907;SDS011;64365;-1.756;110.040;2023-03-20T12:26:43;35.70;;;18.13;;
64907;SDS011;64365;-1.756;110.040;2023-03-20T12:29:19;34.38;;;19.50;;
64907;SDS011;64365;-1.756;110.040;2023-03-20T12:31:53;41.97;;;20.58;;
64907;SDS011;64365;-1.756;110.040;2023-03-20T12:34:23;29.52;;;16.80;;
64907;SDS011;64365;-1.756;110.040;2023-03-20T12:36:54;29.40;;;18.75;;
64907;SDS011;64365;-1.756;110.040;2023-03-20T12:39:22;29.23;;;16.73;;
64907;SDS011;64365;-1.756;110.040;2023-03-20T12:41:59;33.45;;;18.92;;
64907;SDS011;64365;-1.756;110.040;2023-03-20T12:44:36;36.65;;;19.63;;
64907;SDS011;64365;-1.756;110.040;2023-03-20T12:50:06;36.63;;;18.67;;
64907;SDS011;64365;-1.756;110.040;2023-03-20T12:52:43;32.67;;;19.23;;
64907;SDS011;64365;-1.756;110.040;2023-03-20T12:55:24;29.83;;;18.40;;
64907;SDS011;64365;-1.756;110.040;2023-03-20T12:58:03;33.42;;;18.85;;
64907;SDS011;64365;-1.756;110.040;2023-03-20T13:00:40;35.22;;;19.30;;
64907;SDS011;64365;-1.756;110.040;2023-03-20T13:03:20;29.90;;;17.40;;
64907;SDS011;64365;-1.756;110.040;2023-03-20T13:05:57;33.83;;;18.08;;
64907;SDS011;64365;-1.756;110.040;2023-03-20T13:08:33;30.25;;;17.10;;
64907;SDS011;64365;-1.756;110.040;2023-03-20T13:11:12;32.88;;;18.15;;
64907;SDS011;64365;-1.756;110.040;2023-03-20T13:13:46;29.17;;;17.25;;
64907;SDS011;64365;-1.756;110.040;2023-03-20T13:16:21;33.63;;;17.95;;
64907;SDS011;64365;-1.756;110.040;2023-03-20T13:19:00;28.75;;;17.10;;
64907;SDS011;64365;-1.756;110.040;2023-03-20T13:21:33;33.87;;;18.20;;
64907;SDS011;64365;-1.756;110.040;2023-03-20T13:24:13;28.10;;;17.27;;
64907;SDS011;64365;-1.756;110.040;2023-03-20T13:29:25;28.30;;;18.85;;
64907;SDS011;64365;-1.756;110.040;2023-03-20T13:32:05;26.40;;;16.50;;
64907;SDS011;64365;-1.756;110.040;2023-03-20T13:34:49;32.10;;;19.08;;
64907;SDS011;64365;-1.756;110.040;2023-03-20T13:37:27;26.92;;;15.88;;
64907;SDS011;64365;-1.756;110.040;2023-03-20T13:40:02;24.75;;;16.10;;
64907;SDS011;64365;-1.756;110.040;2023-03-20T13:42:32;31.45;;;16.40;;
64907;SDS011;64365;-1.756;110.040;2023-03-20T13:45:04;26.17;;;17.08;;
64907;SDS011;64365;-1.756;110.040;2023-03-20T13:50:11;28.00;;;15.68;;
64907;SDS011;64365;-1.756;110.040;2023-03-20T13:52:51;27.10;;;15.93;;
64907;SDS011;64365;-1.756;110.040;2023-03-20T13:55:26;24.67;;;16.88;;
64907;SDS011;64365;-1.756;110.040;2023-03-20T13:58:03;25.20;;;16.05;;
64907;SDS011;64365;-1.756;110.040;2023-03-20T14:00:41;26.98;;;15.45;;
64907;SDS011;64365;-1.756;110.040;2023-03-20T14:03:17;23.17;;;14.95;;
64907;SDS011;64365;-1.756;110.040;2023-03-20T14:05:50;26.30;;;14.63;;
64907;SDS011;64365;-1.756;110.040;2023-03-20T14:08:28;23.13;;;14.68;;
64907;SDS011;64365;-1.756;110.040;2023-03-20T14:11:05;27.40;;;16.30;;
64907;SDS011;64365;-1.756;110.040;2023-03-20T14:13:48;21.60;;;14.75;;
64907;SDS011;64365;-1.756;110.040;2023-03-20T14:16:18;25.88;;;16.55;;
64907;SDS011;64365;-1.756;110.040;2023-03-20T14:18:48;25.25;;;15.63;;
64907;SDS011;64365;-1.756;110.040;2023-03-20T14:21:17;25.42;;;14.85;;
64907;SDS011;64365;-1.756;110.040;2023-03-20T14:23:46;26.05;;;16.42;;
64907;SDS011;64365;-1.756;110.040;2023-03-20T14:26:18;24.15;;;14.45;;
64907;SDS011;64365;-1.756;110.040;2023-03-20T14:28:52;23.95;;;14.90;;
64907;SDS011;64365;-1.756;110.040;2023-03-20T14:31:22;26.30;;;14.93;;
64907;SDS011;64365;-1.756;110.040;2023-03-20T14:33:58;23.40;;;14.63;;